createdAt,value
2022-12-11T00:01:18.425Z,19.55
2022-12-11T00:03:45.487Z,35.90
2022-12-11T00:06:14.841Z,17.90
2022-12-11T00:08:41.858Z,15.23
2022-12-11T00:11:10.516Z,16.00
2022-12-11T00:13:37.205Z,18.85
2022-12-11T00:16:04.042Z,25.42
2022-12-11T00:18:30.840Z,18.13
2022-12-11T00:21:02.284Z,20.77
2022-12-11T00:23:29.009Z,21.83
2022-12-11T00:25:55.768Z,20.38
2022-12-11T00:28:23.366Z,18.70
2022-12-11T00:30:50.026Z,21.40
2022-12-11T00:33:17.361Z,21.42
2022-12-11T00:35:46.162Z,21.13
2022-12-11T00:38:18.149Z,23.55
2022-12-11T00:40:45.254Z,24.33
2022-12-11T00:43:12.400Z,21.17
2022-12-11T00:45:41.760Z,19.58
2022-12-11T00:48:08.952Z,22.50
2022-12-11T00:50:36.197Z,21.88
2022-12-11T00:53:04.438Z,18.63
2022-12-11T00:55:31.420Z,26.42
2022-12-11T00:57:58.328Z,17.23
2022-12-11T01:00:25.099Z,16.85
2022-12-11T01:02:51.823Z,17.25
2022-12-11T01:05:18.625Z,20.35
2022-12-11T01:07:45.389Z,16.55
2022-12-11T01:10:25.350Z,16.35
2022-12-11T01:12:53.206Z,16.20
2022-12-11T01:15:20.964Z,20.17
2022-12-11T01:17:47.587Z,22.75
2022-12-11T01:20:14.339Z,19.85
2022-12-11T01:22:40.989Z,23.10
2022-12-11T01:25:10.089Z,21.33
2022-12-11T01:27:38.155Z,23.73
2022-12-11T01:30:07.872Z,20.05
2022-12-11T01:32:35.885Z,21.30
2022-12-11T01:35:07.256Z,20.80
2022-12-11T01:37:34.427Z,18.98
2022-12-11T01:40:01.764Z,33.28
2022-12-11T01:42:29.493Z,25.77
2022-12-11T01:45:27.171Z,23.25
2022-12-11T01:47:59.567Z,20.23
2022-12-11T01:50:27.598Z,24.38
2022-12-11T01:52:54.350Z,22.08
2022-12-11T01:55:21.526Z,29.38
2022-12-11T01:57:51.047Z,33.92
2022-12-11T02:00:18.153Z,29.35
2022-12-11T02:02:45.270Z,29.95
2022-12-11T02:05:12.458Z,34.38
2022-12-11T02:07:50.840Z,27.50
2022-12-11T02:10:17.795Z,25.27
2022-12-11T02:12:56.625Z,26.02
2022-12-11T02:15:35.592Z,28.85
2022-12-11T02:18:02.214Z,25.70
2022-12-11T02:20:37.262Z,34.70
2022-12-11T02:23:12.983Z,28.65
2022-12-11T02:26:27.058Z,25.25
2022-12-11T02:28:57.764Z,29.42
2022-12-11T02:31:39.888Z,26.52
2022-12-11T02:34:12.722Z,22.67
2022-12-11T02:36:43.885Z,19.27
2022-12-11T02:39:13.514Z,24.23
2022-12-11T02:41:49.718Z,24.45
2022-12-11T02:44:21.046Z,26.25
2022-12-11T02:46:47.757Z,27.23
2022-12-11T02:49:15.766Z,25.13
2022-12-11T02:51:44.323Z,26.95
2022-12-11T02:54:23.104Z,24.70
2022-12-11T02:57:01.649Z,22.48
2022-12-11T02:59:35.775Z,22.40
2022-12-11T03:02:03.640Z,26.63
2022-12-11T03:04:30.994Z,29.45
2022-12-11T03:07:14.462Z,29.30
2022-12-11T03:09:42.758Z,23.75
2022-12-11T03:12:12.055Z,28.70
2022-12-11T03:14:40.389Z,27.38
2022-12-11T03:17:16.000Z,32.83
2022-12-11T03:19:57.845Z,29.85
2022-12-11T03:22:36.234Z,25.77
2022-12-11T03:25:23.044Z,30.52
2022-12-11T03:28:09.343Z,31.60
2022-12-11T03:30:38.260Z,32.47
2022-12-11T03:33:10.773Z,28.98
2022-12-11T03:35:55.987Z,32.78
2022-12-11T03:38:37.920Z,35.58
2022-12-11T03:41:05.447Z,29.67
2022-12-11T03:43:33.697Z,31.13
2022-12-11T03:46:01.113Z,30.00
2022-12-11T03:48:33.206Z,36.20
2022-12-11T03:51:02.360Z,26.25
2022-12-11T03:53:29.056Z,29.00
2022-12-11T03:55:58.929Z,29.30
2022-12-11T03:58:25.638Z,37.05
2022-12-11T04:00:52.367Z,41.47
2022-12-11T04:03:19.137Z,47.35
2022-12-11T04:05:48.507Z,32.10
2022-12-11T04:08:16.485Z,36.75
2022-12-11T04:10:43.416Z,33.78
2022-12-11T04:13:11.054Z,32.13
2022-12-11T04:15:38.980Z,28.60
2022-12-11T04:18:25.294Z,27.85
2022-12-11T04:21:14.473Z,28.52
2022-12-11T04:23:59.752Z,31.33
2022-12-11T04:26:26.516Z,28.90
2022-12-11T04:28:53.148Z,29.45
2022-12-11T04:31:21.930Z,39.50
2022-12-11T04:33:49.081Z,39.45
2022-12-11T04:36:16.451Z,41.97
2022-12-11T04:38:43.284Z,47.67
2022-12-11T04:41:12.768Z,48.42
2022-12-11T04:43:39.977Z,61.60
2022-12-11T04:46:09.668Z,37.03
2022-12-11T04:48:38.215Z,29.55
2022-12-11T04:51:05.611Z,26.80
2022-12-11T04:53:32.344Z,27.27
2022-12-11T04:55:58.996Z,21.65
2022-12-11T04:58:28.038Z,23.08
2022-12-11T05:00:54.841Z,25.90
2022-12-11T05:03:22.215Z,22.05
2022-12-11T05:05:53.301Z,26.15
2022-12-11T05:08:21.383Z,20.02
2022-12-11T05:11:02.046Z,29.63
2022-12-11T05:13:29.979Z,23.23
2022-12-11T05:15:57.158Z,21.58
2022-12-11T05:18:24.205Z,24.92
2022-12-11T05:20:58.856Z,24.88
2022-12-11T05:23:26.132Z,21.17
2022-12-11T05:25:57.787Z,22.45
2022-12-11T05:28:26.169Z,21.55
2022-12-11T05:30:57.664Z,56.30
2022-12-11T05:33:24.818Z,19.45
2022-12-11T05:35:52.109Z,22.88
2022-12-11T05:38:19.143Z,27.33
2022-12-11T05:40:54.624Z,40.88
2022-12-11T05:43:21.313Z,21.75
2022-12-11T05:45:47.897Z,22.05
2022-12-11T05:48:14.540Z,26.10
2022-12-11T05:50:41.157Z,26.10
2022-12-11T05:53:08.067Z,23.67
2022-12-11T05:55:35.134Z,20.70
2022-12-11T05:58:01.876Z,23.90
2022-12-11T06:00:34.362Z,22.08
2022-12-11T06:03:02.794Z,24.80
2022-12-11T06:05:29.523Z,26.02
2022-12-11T06:07:56.201Z,26.05
2022-12-11T06:10:22.840Z,20.73
2022-12-11T06:12:49.488Z,26.77
2022-12-11T06:15:16.412Z,26.58
2022-12-11T06:17:43.087Z,24.08
2022-12-11T06:20:10.045Z,27.83
2022-12-11T06:22:36.733Z,24.92
2022-12-11T06:25:03.736Z,27.05
2022-12-11T06:27:30.996Z,32.05
2022-12-11T06:29:57.733Z,36.53
2022-12-11T06:32:24.552Z,43.88
2022-12-11T06:34:51.153Z,35.05
2022-12-11T06:37:17.932Z,42.72
2022-12-11T06:39:44.885Z,40.78
2022-12-11T06:42:11.600Z,47.05
2022-12-11T06:44:38.226Z,43.17
2022-12-11T06:47:05.336Z,43.85
2022-12-11T06:49:32.019Z,51.50
2022-12-11T06:51:58.612Z,45.97
2022-12-11T06:54:28.337Z,55.63
2022-12-11T06:56:55.448Z,48.97
2022-12-11T06:59:22.146Z,49.97
2022-12-11T07:01:48.924Z,52.45
2022-12-11T07:04:15.682Z,78.10
2022-12-11T07:06:42.445Z,83.50
2022-12-11T07:09:09.972Z,68.13
2022-12-11T07:11:36.562Z,46.92
2022-12-11T07:14:03.378Z,51.53
2022-12-11T07:16:30.038Z,48.95
2022-12-11T07:18:56.725Z,57.63
2022-12-11T07:21:23.531Z,67.80
2022-12-11T07:23:50.407Z,40.15
2022-12-11T07:26:20.228Z,33.63
2022-12-11T07:28:47.403Z,43.60
2022-12-11T07:31:16.817Z,38.72
2022-12-11T07:33:44.048Z,34.80
2022-12-11T07:36:13.119Z,33.25
2022-12-11T07:38:39.998Z,32.20
2022-12-11T07:41:09.375Z,38.10
2022-12-11T07:43:36.296Z,31.65
2022-12-11T07:46:08.831Z,27.58
2022-12-11T07:48:36.596Z,28.65
2022-12-11T07:51:17.903Z,35.65
2022-12-11T07:53:45.956Z,42.15
2022-12-11T07:56:13.474Z,48.70
2022-12-11T07:58:40.100Z,20.98
2022-12-11T08:01:13.169Z,20.17
2022-12-11T08:03:40.321Z,30.10
2022-12-11T08:06:07.112Z,27.95
2022-12-11T08:08:33.821Z,42.42
2022-12-11T08:11:07.718Z,38.20
2022-12-11T08:13:34.767Z,34.78
2022-12-11T08:16:09.849Z,45.55
2022-12-11T08:18:37.639Z,66.78
2022-12-11T08:21:09.441Z,40.83
2022-12-11T08:23:36.240Z,39.05
2022-12-11T08:26:05.110Z,24.45
2022-12-11T08:28:32.339Z,26.85
2022-12-11T08:30:59.579Z,69.78
2022-12-11T08:33:26.725Z,27.35
2022-12-11T08:35:53.370Z,24.67
2022-12-11T08:38:25.166Z,27.98
2022-12-11T08:43:18.842Z,21.88
2022-12-11T08:45:46.689Z,26.85
2022-12-11T08:48:13.394Z,22.60
2022-12-11T08:50:40.072Z,22.17
2022-12-11T08:53:06.749Z,21.83
2022-12-11T08:55:33.874Z,22.75
2022-12-11T08:58:00.533Z,23.45
2022-12-11T09:00:27.162Z,25.58
2022-12-11T09:02:53.847Z,24.92
2022-12-11T09:05:20.530Z,25.23
2022-12-11T09:07:47.214Z,23.02
2022-12-11T09:10:13.966Z,21.40
2022-12-11T09:12:40.828Z,28.17
2022-12-11T09:15:07.852Z,25.58
2022-12-11T09:17:35.449Z,30.35
2022-12-11T09:20:02.352Z,31.60
2022-12-11T09:22:29.017Z,37.50
2022-12-11T09:24:55.657Z,29.95
2022-12-11T09:27:22.380Z,36.20
2022-12-11T09:29:49.495Z,31.67
2022-12-11T09:32:16.165Z,24.98
2022-12-11T09:34:42.929Z,31.70
2022-12-11T09:37:09.551Z,27.10
2022-12-11T09:39:36.187Z,22.00
2022-12-11T09:42:41.872Z,27.73
2022-12-11T09:45:15.326Z,24.13
2022-12-11T09:47:50.075Z,25.50
2022-12-11T09:50:41.323Z,23.17
2022-12-11T09:53:16.720Z,27.30
2022-12-11T09:56:11.262Z,19.77
2022-12-11T09:58:54.353Z,25.88
2022-12-11T10:01:28.938Z,23.58
2022-12-11T10:04:09.217Z,19.20
2022-12-11T10:06:48.586Z,41.35
2022-12-11T10:09:40.339Z,19.02
2022-12-11T10:12:33.483Z,18.27
2022-12-11T10:15:16.646Z,20.10
2022-12-11T10:17:44.727Z,21.75
2022-12-11T10:20:39.315Z,17.55
2022-12-11T10:23:08.894Z,17.90
2022-12-11T10:25:44.628Z,23.83
2022-12-11T10:28:16.796Z,28.75
2022-12-11T10:31:14.648Z,24.17
2022-12-11T10:34:00.695Z,21.90
2022-12-11T10:36:36.946Z,15.65
2022-12-11T10:39:12.024Z,25.73
2022-12-11T10:41:41.813Z,20.95
2022-12-11T10:44:34.867Z,21.50
2022-12-11T10:47:14.542Z,19.02
2022-12-11T10:49:56.534Z,13.48
2022-12-11T10:52:35.730Z,16.23
2022-12-11T10:55:03.726Z,19.73
2022-12-11T10:57:33.952Z,19.80
2022-12-11T11:00:01.042Z,46.95
2022-12-11T11:02:38.824Z,18.67
2022-12-11T11:05:36.564Z,21.27
2022-12-11T11:08:23.736Z,17.83
2022-12-11T11:10:54.740Z,20.85
2022-12-11T11:13:24.302Z,21.98
2022-12-11T11:16:02.536Z,23.23
2022-12-11T11:18:30.717Z,44.10
2022-12-11T11:20:57.639Z,29.77
2022-12-11T11:23:25.315Z,22.88
2022-12-11T11:25:55.268Z,30.50
2022-12-11T11:28:34.036Z,20.95
2022-12-11T11:31:10.803Z,26.17
2022-12-11T11:33:45.222Z,25.13
2022-12-11T11:36:20.886Z,21.83
2022-12-11T11:38:58.742Z,25.23
2022-12-11T11:41:38.710Z,56.97
2022-12-11T11:44:10.311Z,27.58
2022-12-11T11:46:49.069Z,34.78
2022-12-11T11:49:45.783Z,36.78
2022-12-11T11:52:12.344Z,49.90
2022-12-11T11:55:05.994Z,36.40
2022-12-11T11:57:42.337Z,40.92
2022-12-11T12:00:28.858Z,22.95
2022-12-11T12:03:03.659Z,29.23
2022-12-11T12:05:43.104Z,21.83
2022-12-11T12:08:31.381Z,30.20
2022-12-11T12:11:39.026Z,21.05
2022-12-11T12:14:50.652Z,28.27
2022-12-11T12:17:08.975Z,25.20
2022-12-11T12:19:55.539Z,26.80
2022-12-11T12:22:40.950Z,21.67
2022-12-11T12:25:28.877Z,18.13
2022-12-11T12:28:19.994Z,22.23
2022-12-11T12:30:49.707Z,43.47
2022-12-11T12:33:27.545Z,17.35
2022-12-11T12:36:26.202Z,16.92
2022-12-11T12:39:16.719Z,20.08
2022-12-11T12:42:07.284Z,21.63
2022-12-11T12:44:53.095Z,17.65
2022-12-11T12:47:21.470Z,21.55
2022-12-11T12:49:54.334Z,22.98
2022-12-11T12:52:32.943Z,20.70
2022-12-11T12:55:17.666Z,21.90
2022-12-11T12:57:55.035Z,20.92
2022-12-11T13:00:38.451Z,18.45
2022-12-11T13:03:15.205Z,22.67
2022-12-11T13:06:00.032Z,24.30
2022-12-11T13:08:41.668Z,22.45
2022-12-11T13:11:12.009Z,22.33
2022-12-11T13:13:40.598Z,24.30
2022-12-11T13:16:16.372Z,21.25
2022-12-11T13:18:49.022Z,24.98
2022-12-11T13:21:38.144Z,27.15
2022-12-11T13:24:45.679Z,24.77
2022-12-11T13:27:25.694Z,17.27
2022-12-11T13:30:03.623Z,25.17
2022-12-11T13:32:31.227Z,20.75
2022-12-11T13:35:03.912Z,19.88
2022-12-11T13:37:41.292Z,18.25
2022-12-11T13:40:27.186Z,19.65
2022-12-11T13:42:58.588Z,20.38
2022-12-11T13:45:34.328Z,23.20
2022-12-11T13:48:01.570Z,21.17
2022-12-11T13:50:33.171Z,34.65
2022-12-11T13:53:01.690Z,29.27
2022-12-11T13:55:30.117Z,36.38
2022-12-11T13:57:57.093Z,49.22
2022-12-11T14:00:26.495Z,29.17
2022-12-11T14:02:56.126Z,27.27
2022-12-11T14:05:23.437Z,50.47
2022-12-11T14:07:56.726Z,29.02
2022-12-11T14:10:30.065Z,26.40
2022-12-11T14:13:05.417Z,23.98
2022-12-11T14:15:34.761Z,23.40
2022-12-11T14:18:01.969Z,27.95
2022-12-11T14:20:33.741Z,22.92
2022-12-11T14:23:21.806Z,25.40
2022-12-11T14:25:56.213Z,25.23
2022-12-11T14:28:27.459Z,32.25
2022-12-11T14:30:59.644Z,76.88
2022-12-11T14:33:32.760Z,53.25
2022-12-11T14:36:01.396Z,30.02
2022-12-11T14:38:38.171Z,32.75
2022-12-11T14:41:19.777Z,63.53
2022-12-11T14:43:51.230Z,29.10
2022-12-11T14:46:24.619Z,37.55
2022-12-11T14:49:01.200Z,50.28
2022-12-11T14:51:34.548Z,41.33
2022-12-11T14:54:02.625Z,47.53
2022-12-11T14:56:30.260Z,65.10
2022-12-11T14:59:02.070Z,93.43
2022-12-11T15:01:34.507Z,50.05
2022-12-11T15:04:16.322Z,74.75
2022-12-11T15:06:45.425Z,53.80
2022-12-11T15:09:40.522Z,54.75
2022-12-11T15:12:13.406Z,61.45
2022-12-11T15:15:05.442Z,53.10
2022-12-11T15:17:34.557Z,43.00
2022-12-11T15:20:11.649Z,47.58
2022-12-11T15:22:43.241Z,42.60
2022-12-11T15:25:25.524Z,40.17
2022-12-11T15:27:54.677Z,44.78
2022-12-11T15:30:26.945Z,43.30
2022-12-11T15:33:10.061Z,48.92
2022-12-11T15:35:38.614Z,42.05
2022-12-11T15:38:05.624Z,44.17
2022-12-11T15:40:32.503Z,47.90
2022-12-11T15:43:02.142Z,49.45
2022-12-11T15:45:29.158Z,39.35
2022-12-11T15:47:56.402Z,45.60
2022-12-11T15:50:25.059Z,41.38
2022-12-11T15:52:53.434Z,44.42
2022-12-11T15:55:22.392Z,47.88
2022-12-11T15:57:55.749Z,52.65
2022-12-11T16:00:23.979Z,61.38
2022-12-11T16:02:51.574Z,46.38
2022-12-11T16:05:18.373Z,54.63
2022-12-11T16:07:45.098Z,44.80
2022-12-11T16:10:18.660Z,52.20
2022-12-11T16:12:46.831Z,98.45
2022-12-11T16:15:21.409Z,49.10
2022-12-11T16:17:49.666Z,44.58
2022-12-11T16:20:16.369Z,48.13
2022-12-11T16:22:43.055Z,45.55
2022-12-11T16:25:10.096Z,50.30
2022-12-11T16:27:37.065Z,52.67
2022-12-11T16:30:05.029Z,44.47
2022-12-11T16:32:31.710Z,50.45
2022-12-11T16:35:00.733Z,48.63
2022-12-11T16:37:27.609Z,49.28
2022-12-11T16:39:54.373Z,46.35
2022-12-11T16:42:21.035Z,51.15
2022-12-11T16:44:48.156Z,45.63
2022-12-11T16:47:14.859Z,61.58
2022-12-11T16:49:43.052Z,45.20
2022-12-11T16:52:09.697Z,48.17
2022-12-11T16:54:36.398Z,52.90
2022-12-11T16:57:03.492Z,39.97
2022-12-11T16:59:36.594Z,46.55
2022-12-11T17:02:04.207Z,42.25
2022-12-11T17:04:30.895Z,43.33
2022-12-11T17:06:57.632Z,56.72
2022-12-11T17:09:24.310Z,61.55
2022-12-11T17:11:50.987Z,45.47
2022-12-11T17:14:17.600Z,57.63
2022-12-11T17:16:44.294Z,41.03
2022-12-11T17:19:11.048Z,43.20
2022-12-11T17:21:37.682Z,57.00
2022-12-11T17:24:04.638Z,63.08
2022-12-11T17:26:31.553Z,54.13
2022-12-11T17:28:58.251Z,49.58
2022-12-11T17:31:25.109Z,46.92
2022-12-11T17:33:53.844Z,49.05
2022-12-11T17:36:21.900Z,42.92
2022-12-11T17:38:49.875Z,43.10
2022-12-11T17:41:20.671Z,40.58
2022-12-11T17:43:52.495Z,44.53
2022-12-11T17:46:20.330Z,88.53
2022-12-11T17:48:47.874Z,176.07
2022-12-11T17:51:21.030Z,50.88
2022-12-11T17:53:48.013Z,81.05
2022-12-11T17:56:14.812Z,66.63
2022-12-11T17:58:41.861Z,54.30
2022-12-11T18:01:10.723Z,130.30
2022-12-11T18:03:38.169Z,53.22
2022-12-11T18:06:07.883Z,81.28
2022-12-11T18:08:34.845Z,104.43
2022-12-11T18:11:10.139Z,61.25
2022-12-11T18:13:36.856Z,80.55
2022-12-11T18:16:10.287Z,74.45
2022-12-11T18:18:37.079Z,80.70
2022-12-11T18:21:04.397Z,77.45
2022-12-11T18:23:31.819Z,60.15
2022-12-11T18:25:58.469Z,54.88
2022-12-11T18:28:25.225Z,58.03
2022-12-11T18:30:51.937Z,46.65
2022-12-11T18:33:18.762Z,58.95
2022-12-11T18:35:45.440Z,73.38
2022-12-11T18:38:12.580Z,83.28
2022-12-11T18:40:39.220Z,61.83
2022-12-11T18:43:05.891Z,59.33
2022-12-11T18:45:32.579Z,45.38
2022-12-11T18:47:59.442Z,53.50
2022-12-11T18:50:26.524Z,60.03
2022-12-11T18:52:56.969Z,59.80
2022-12-11T18:55:23.889Z,48.30
2022-12-11T18:57:50.584Z,52.65
2022-12-11T19:00:18.297Z,50.10
2022-12-11T19:02:45.371Z,56.70
2022-12-11T19:05:12.610Z,61.95
2022-12-11T19:07:39.561Z,61.78
2022-12-11T19:10:06.735Z,71.30
2022-12-11T19:12:34.168Z,64.15
2022-12-11T19:15:00.946Z,49.05
2022-12-11T19:17:27.702Z,54.47
2022-12-11T19:19:54.418Z,49.83
2022-12-11T19:22:21.245Z,54.50
2022-12-11T19:24:47.919Z,50.72
2022-12-11T19:27:14.620Z,60.00
2022-12-11T19:29:41.345Z,65.93
2022-12-11T19:32:08.215Z,63.85
2022-12-11T19:34:34.982Z,78.90
2022-12-11T19:37:01.687Z,96.97
2022-12-11T19:39:28.397Z,83.70
2022-12-11T19:41:55.192Z,72.35
2022-12-11T19:44:21.902Z,90.70
2022-12-11T19:46:48.754Z,67.78
2022-12-11T19:49:16.284Z,57.58
2022-12-11T19:51:43.441Z,57.38
2022-12-11T19:54:13.564Z,62.22
2022-12-11T19:56:40.644Z,57.92
2022-12-11T19:59:10.652Z,51.08
2022-12-11T20:01:38.208Z,58.55
2022-12-11T20:04:08.306Z,71.07
2022-12-11T20:06:37.257Z,65.43
2022-12-11T20:09:05.919Z,61.70
2022-12-11T20:11:33.787Z,59.60
2022-12-11T20:14:00.766Z,61.67
2022-12-11T20:16:46.285Z,69.25
2022-12-11T20:19:14.406Z,62.97
2022-12-11T20:21:42.233Z,64.65
2022-12-11T20:24:09.952Z,62.88
2022-12-11T20:26:38.117Z,67.45
2022-12-11T20:29:08.080Z,61.70
2022-12-11T20:31:36.144Z,57.65
2022-12-11T20:34:04.040Z,58.55
2022-12-11T20:36:31.238Z,53.13
2022-12-11T20:38:57.949Z,55.75
2022-12-11T20:41:25.445Z,60.20
2022-12-11T20:43:55.475Z,60.78
2022-12-11T20:46:27.569Z,63.50
2022-12-11T20:48:56.251Z,60.17
2022-12-11T20:51:26.298Z,59.72
2022-12-11T20:54:01.182Z,61.75
2022-12-11T20:56:30.002Z,56.20
2022-12-11T20:58:58.045Z,55.35
2022-12-11T21:01:28.071Z,55.97
2022-12-11T21:03:54.842Z,50.40
2022-12-11T21:06:32.790Z,56.88
2022-12-11T21:09:01.586Z,50.13
2022-12-11T21:11:28.920Z,58.08
2022-12-11T21:13:55.624Z,59.25
2022-12-11T21:16:23.148Z,56.55
2022-12-11T21:18:50.283Z,61.30
2022-12-11T21:21:17.559Z,54.88
2022-12-11T21:23:44.909Z,53.80
2022-12-11T21:26:12.035Z,49.95
2022-12-11T21:28:39.031Z,52.70
2022-12-11T21:31:08.685Z,52.92
2022-12-11T21:33:35.739Z,52.03
2022-12-11T21:36:02.808Z,61.53
2022-12-11T21:38:29.766Z,56.70
2022-12-11T21:40:57.078Z,53.00
2022-12-11T21:43:24.721Z,51.97
2022-12-11T21:46:01.032Z,49.95
2022-12-11T21:48:29.043Z,46.30
2022-12-11T21:51:03.552Z,45.05
2022-12-11T21:53:30.227Z,46.00
2022-12-11T21:55:56.947Z,51.55
2022-12-11T21:58:23.684Z,46.80
2022-12-11T22:00:50.436Z,45.58
2022-12-11T22:03:17.109Z,48.17
2022-12-11T22:05:43.783Z,55.50
2022-12-11T22:08:10.516Z,55.40
2022-12-11T22:10:37.264Z,49.95
2022-12-11T22:13:03.936Z,101.45
2022-12-11T22:15:30.632Z,76.97
2022-12-11T22:17:57.409Z,65.85
2022-12-11T22:20:24.096Z,62.97
2022-12-11T22:22:50.854Z,47.28
2022-12-11T22:25:17.646Z,43.05
2022-12-11T22:27:44.330Z,42.42
2022-12-11T22:30:11.803Z,43.97
2022-12-11T22:32:38.766Z,45.33
2022-12-11T22:35:05.869Z,45.38
2022-12-11T22:37:32.656Z,39.50
2022-12-11T22:52:04.346Z,41.00
2022-12-11T22:54:31.014Z,38.50
2022-12-11T22:56:57.695Z,45.13
2022-12-11T22:59:24.405Z,44.30
2022-12-11T23:01:51.161Z,43.13
2022-12-11T23:04:17.818Z,39.95
2022-12-11T23:06:44.511Z,47.72
2022-12-11T23:09:11.834Z,42.13
2022-12-11T23:11:39.294Z,38.95
2022-12-11T23:14:08.553Z,40.63
2022-12-11T23:16:35.276Z,36.90
2022-12-11T23:19:02.037Z,40.03
2022-12-11T23:21:29.028Z,38.45
2022-12-11T23:23:56.804Z,46.55
2022-12-11T23:26:24.501Z,40.45
2022-12-11T23:28:51.270Z,39.15
2022-12-11T23:31:18.271Z,39.30
2022-12-11T23:33:45.122Z,41.13
2022-12-11T23:36:12.672Z,44.75
2022-12-11T23:38:39.988Z,47.17
2022-12-11T23:41:09.309Z,39.22
2022-12-11T23:43:37.168Z,44.10
2022-12-11T23:46:07.246Z,43.95
2022-12-11T23:48:34.147Z,38.20
2022-12-11T23:51:02.145Z,40.38
2022-12-11T23:53:29.072Z,44.30
2022-12-11T23:55:55.849Z,44.10
2022-12-11T23:58:22.650Z,69.80
